Latest Weather Observations for Coolangatta

IDQ60801

Issued at 8:13 am EST Sunday 5 February 2023 (issued every 10 minutes, with the page automatically refreshed every 10 minutes)

About weather observations | Map of weather stations | Latest weather observations for QLD | Other Formats
Station Details ID: 040717 Name: COOLANGATTA Lat: -28.17 Lon: 153.51 Height: 4.0 m
Data from the previous 72 hours. | See also: Recent months at Coolangatta

Observations at Coolangatta are collected in the Queensland time zone, which does not include daylight savings during the summer period. Therefore 'Rain since 9am' totals and other values are based on the Queensland time zone.

Date/Time
EST
Temp
°C
App
Temp
°C
Dew
Point
°C
Rel
Hum
%
Delta-T
°C
Wind Press
QNH
hPa
Press
MSL
hPa
Rain since
9am
mm
Dir  Spd
km/h
Gust
km/h
Spd
kts
Gust
kts
05/08:00am 27.2 27.9 21.2 69 4.0 SE 19 26 10 14 1013.9 1013.8 6.6
05/07:30am 26.2 28.6 22.3 79 2.6 S 13 17 7 9 1013.4 1013.3 6.6
05/07:00am 25.4 27.7 22.1 82 2.2 SSE 13 17 7 9 1013.0 1012.9 6.6
05/06:30am 24.5 27.1 22.0 86 1.7 S 11 17 6 9 1012.6 1012.5 6.6
05/06:00am 23.4 26.8 22.0 92 0.9 SSW 7 9 4 5 1012.2 1012.1 6.6
05/05:30am 22.8 25.5 21.4 92 0.9 S 9 11 5 6 1011.8 1011.7 6.6
05/05:00am 22.8 25.5 21.4 92 0.9 S 9 11 5 6 1011.3 1011.2 6.6
05/04:30am 22.6 25.1 21.1 91 1.0 S 9 11 5 6 1011.0 1010.9 6.6
05/04:00am 22.6 25.5 21.1 91 1.0 S 7 9 4 5 1010.8 1010.7 6.4
05/03:30am 22.8 25.7 21.1 90 1.1 S 7 9 4 5 1010.5 1010.4 6.4
05/03:00am 23.0 25.7 21.3 90 1.1 S 9 11 5 6 1010.2 1010.1 6.4
05/02:30am 22.9 26.0 21.4 91 1.0 S 7 11 4 6 1010.0 1009.9 6.4
05/02:00am 22.8 26.2 22.0 95 0.5 S 7 9 4 5 1010.0 1009.9 6.4
05/01:30am 23.2 27.1 21.8 92 0.9 S 4 7 2 4 1010.3 1010.2 6.4
05/01:00am 23.7 28.4 22.0 90 1.1 CALM 0 0 0 0 1010.5 1010.4 6.4
05/12:30am 23.7 27.2 21.8 89 1.3 SSE 6 7 3 4 1010.6 1010.5 6.4
05/12:00am 23.6 27.1 21.9 90 1.1 SSE 6 9 3 5 1010.7 1010.6 6.4
 
Date/Time
EST
Temp
°C
App
Temp
°C
Dew
Point
°C
Rel
Hum
%
Delta-T
°C
Wind Press
QNH
hPa
Press
MSL
hPa
Rain since
9am
mm
Dir  Spd
km/h
Gust
km/h
Spd
kts
Gust
kts
04/11:30pm 23.7 26.2 21.8 89 1.3 SE 11 15 6 8 1010.7 1010.6 6.4
04/11:00pm 23.5 26.3 21.6 89 1.3 S 9 13 5 7 1010.7 1010.6 6.4
04/10:30pm 23.6 26.8 21.7 89 1.3 S 7 11 4 6 1010.7 1010.6 6.4
04/10:00pm 22.9 25.5 21.2 90 1.1 SSE 9 11 5 6 1010.2 1010.1 6.4
04/09:30pm 23.2 26.0 21.5 90 1.1 SSE 9 11 5 6 1010.2 1010.1 6.4
04/09:00pm 22.8 25.8 21.3 91 1.0 SE 7 11 4 6 1009.7 1009.6 6.4
04/08:30pm 22.7 25.6 21.0 90 1.1 ESE 7 9 4 5 1009.3 1009.2 6.4
04/08:00pm 22.8 25.5 21.3 91 1.0 NE 9 13 5 7 1009.0 1008.9 6.4
04/07:30pm 22.9 27.0 20.8 88 1.4 CALM 0 0 0 0 1008.3 1008.2 6.4
04/07:00pm 23.3 27.0 20.8 86 1.6 NNE 2 6 1 3 1007.5 1007.4 6.4
04/06:30pm 24.1 27.3 20.4 80 2.4 NNE 4 7 2 4 1006.8 1006.7 6.4
04/06:00pm 24.5 27.0 20.2 77 2.8 NNE 7 11 4 6 1006.1 1006.0 6.4
04/05:30pm 24.9 27.1 20.4 76 2.9 NNE 9 11 5 6 1005.6 1005.5 6.4
04/05:00pm 25.3 27.7 20.1 73 3.4 NNE 7 9 4 5 1005.4 1005.3 6.4
04/04:30pm 25.9 28.7 20.9 74 3.3 NNE 7 9 4 5 1005.2 1005.1 6.4
04/04:00pm 24.8 27.4 20.1 75 3.1 N 6 9 3 5 1005.1 1005.0 6.4
04/03:30pm 24.9 27.8 21.0 79 2.6 NNW 7 11 4 6 1005.3 1005.2 6.4
04/03:00pm 24.3 26.2 21.4 84 1.9 N 13 17 7 9 1005.3 1005.2 6.4
04/02:30pm 24.1 25.8 21.6 86 1.7 N 15 17 8 9 1005.5 1005.4 6.4
04/02:00pm 23.9 26.1 21.2 85 1.8 N 11 15 6 8 1006.0 1005.9 6.2
04/01:41pm 24.0 26.5 21.1 84 1.9 N 9 11 5 6 1005.7 1005.6 5.6
04/01:30pm 23.9 25.6 21.0 84 1.9 N 13 15 7 8 1005.7 1005.6 5.6
04/01:27pm 24.0 26.3 21.3 85 1.8 N 11 15 6 8 1005.7 1005.6 5.6
04/01:25pm 23.9 25.9 20.8 83 2.0 N 11 15 6 8 1005.7 1005.6 5.6
04/01:09pm 24.5 26.6 20.2 77 2.8 NNE 9 13 5 7 1005.8 1005.7 4.6
04/01:00pm 25.2 28.2 21.3 79 2.6 E 7 13 4 7 1005.9 1005.8 4.0
04/12:40pm 25.0 29.2 21.7 82 2.2 SE 2 7 1 4 1005.6 1005.5 3.8
04/12:30pm 24.7 26.9 20.4 77 2.8 SE 9 13 5 7 1005.7 1005.6 3.2
04/12:16pm 26.2 30.8 24.1 88 1.4 SSE 7 11 4 6 1006.0 1005.9 2.2
04/12:00pm 26.3 29.4 23.6 85 1.9 SE 13 17 7 9 1005.4 1005.3 1.2
04/11:30am 26.5 29.8 23.8 85 1.9 SSE 13 20 7 11 1005.8 1005.7 1.2
04/11:00am 26.6 30.6 24.4 88 1.5 ESE 11 13 6 7 1005.5 1005.4 1.2
04/10:30am 26.8 30.6 23.5 82 2.3 E 9 13 5 7 1005.7 1005.6 0.6
04/10:00am 27.2 31.3 24.5 85 1.9 SE 11 17 6 9 1005.3 1005.2 0.4
04/09:30am 28.4 34.0 23.5 75 3.4 CALM 0 0 0 0 1004.3 1004.2 0.0
04/09:00am 28.5 33.0 23.6 75 3.4 WNW 6 9 3 5 1004.1 1004.0 0.0
04/08:30am 28.2 31.8 23.1 74 3.5 NW 9 13 5 7 1003.6 1003.5 0.0
04/08:00am 27.9 32.7 25.1 85 2.0 N 9 11 5 6 1003.1 1003.0 0.0
04/07:30am 27.9 32.6 24.9 84 2.1 NW 9 11 5 6 1002.7 1002.6 0.0
04/07:00am 27.3 32.2 25.9 92 1.0 NNW 11 15 6 8 1002.1 1002.0 0.0
04/06:30am 27.2 32.2 26.0 93 0.8 NNW 11 13 6 7 1001.3 1001.2 0.0
04/06:00am 26.9 32.2 25.9 94 0.7 NW 9 13 5 7 1000.9 1000.8 0.0
04/05:30am 26.6 33.1 25.7 95 0.6 NW 2 7 1 4 1000.0 999.9 0.0
04/05:09am 26.4 33.2 25.5 95 0.6 CALM 0 6 0 3 999.8 999.7 0.0
04/05:00am 26.4 31.2 25.7 96 0.5 NNW 11 15 6 8 999.8 999.7 0.0
04/04:30am 26.8 31.4 25.9 95 0.6 NNW 13 17 7 9 999.4 999.3 0.0
04/04:28am 26.8 31.4 25.9 95 0.6 NNW 13 17 7 9 999.3 999.2 0.0
04/04:00am 26.8 31.6 26.3 97 0.4 NNW 13 17 7 9 999.0 998.9 0.0
04/03:57am 26.7 31.5 26.2 97 0.4 NNW 13 17 7 9 998.9 998.8 0.0
04/03:30am 26.2 30.8 25.9 98 0.2 NNW 13 15 7 8 998.5 998.4 0.0
04/03:13am 26.1 30.2 25.8 98 0.2 NNW 15 17 8 9 998.3 998.2 0.0
04/03:00am 26.1 29.8 25.8 98 0.2 NNW 17 19 9 10 998.3 998.2 0.0
04/02:30am 26.3 30.4 25.8 97 0.4 N 15 17 8 9 998.1 998.0 0.0
04/02:02am 26.3 30.7 25.6 96 0.5 N 13 15 7 8 998.1 998.0 0.0
04/02:00am 26.4 30.8 25.7 96 0.5 N 13 17 7 9 998.1 998.0 0.0
04/01:55am 26.4 30.7 25.5 95 0.6 N 13 19 7 10 998.0 997.9 0.0
04/01:38am 26.7 31.2 25.8 95 0.6 N 13 17 7 9 998.2 998.1 0.0
04/01:30am 26.8 31.7 25.9 95 0.6 NNW 11 15 6 8 998.2 998.1 0.0
04/01:25am 26.8 31.7 25.9 95 0.6 NNW 11 15 6 8 998.1 998.0 0.0
04/01:00am 26.7 31.7 26.0 96 0.5 NNW 11 15 6 8 998.2 998.1 0.0
04/12:30am 26.5 31.4 25.8 96 0.5 NNW 11 15 6 8 998.2 998.1 0.0
04/12:00am 26.4 31.4 25.4 94 0.7 N 9 15 5 8 998.6 998.5 0.0
 
Date/Time
EST
Temp
°C
App
Temp
°C
Dew
Point
°C
Rel
Hum
%
Delta-T
°C
Wind Press
QNH
hPa
Press
MSL
hPa
Rain since
9am
mm
Dir  Spd
km/h
Gust
km/h
Spd
kts
Gust
kts
03/11:55pm 26.3 31.1 25.1 93 0.8 N 9 15 5 8 998.6 998.5 0.0
03/11:30pm 26.2 30.1 24.8 92 1.0 N 13 15 7 8 998.9 998.8 0.0
03/11:20pm 26.3 30.6 24.9 92 1.0 N 11 15 6 8 999.1 999.0 0.0
03/11:00pm 26.8 31.5 25.0 90 1.3 N 9 13 5 7 999.2 999.1 0.0
03/10:30pm 26.6 31.9 25.0 91 1.1 NW 6 7 3 4 999.4 999.3 0.0
03/10:00pm 26.4 30.4 25.0 92 1.0 NNW 13 20 7 11 999.3 999.2 0.0
03/09:30pm 26.5 29.9 25.3 93 0.8 NNW 17 20 9 11 999.1 999.0 0.0
03/09:00pm 26.4 30.1 25.2 93 0.8 NNW 15 20 8 11 998.9 998.8 0.0
03/08:30pm 26.3 29.5 24.9 92 1.0 NNW 17 24 9 13 998.8 998.7 0.0
03/08:00pm 26.4 28.7 25.0 92 1.0 NNW 22 28 12 15 998.6 998.5 0.0
03/07:30pm 26.8 29.5 25.0 90 1.3 N 20 26 11 14 998.3 998.2 0.0
03/07:00pm 26.7 29.5 24.9 90 1.3 N 19 24 10 13 997.9 997.8 0.0
03/06:30pm 26.6 29.2 24.6 89 1.4 N 19 24 10 13 997.6 997.5 0.0
03/06:00pm 26.9 28.6 24.7 88 1.5 NNW 24 32 13 17 997.2 997.1 0.0
03/05:30pm 27.3 28.6 24.7 86 1.8 NNW 26 33 14 18 996.8 996.7 0.0
03/05:00pm 27.7 30.9 24.9 85 2.0 N 17 24 9 13 996.3 996.2 0.0
03/04:30pm 27.9 30.2 24.5 82 2.4 N 20 28 11 15 996.5 996.4 0.0
03/04:00pm 29.4 32.0 24.9 77 3.2 N 20 26 11 14 996.4 996.3 0.0
03/03:30pm 29.2 31.7 24.7 76 3.1 NNW 20 30 11 16 996.0 995.9 0.0
03/03:00pm 29.6 31.2 24.5 74 3.6 N 24 32 13 17 995.9 995.8 0.0
03/02:30pm 29.6 32.1 24.5 74 3.6 N 19 26 10 14 996.1 996.0 0.0
03/02:00pm 29.7 31.9 24.8 75 3.4 N 22 32 12 17 996.2 996.1 0.0
03/01:30pm 29.5 32.6 24.8 76 3.3 N 17 28 9 15 996.5 996.4 0.0
03/01:00pm 29.6 32.6 24.7 75 3.4 NNE 17 26 9 14 996.7 996.6 0.0
03/12:30pm 30.0 32.6 24.6 73 3.8 NNE 19 26 10 14 996.9 996.8 0.0
03/12:00pm 30.3 33.1 24.9 73 3.8 NNE 19 26 10 14 997.0 996.9 0.0
03/11:30am 29.7 31.8 24.1 72 3.9 N 20 24 11 13 997.0 996.9 0.0
03/11:00am 29.6 31.5 23.8 71 4.0 NNE 20 24 11 13 997.2 997.1 0.0
03/10:30am 30.3 32.3 23.0 65 5.0 NNE 17 20 9 11 997.3 997.2 0.0
03/10:00am 30.0 32.2 23.2 67 4.7 N 17 22 9 12 997.5 997.4 0.0
03/09:30am 29.4 30.8 22.6 67 4.6 N 19 22 10 12 997.4 997.3 0.0
03/09:00am 28.9 30.3 22.6 69 4.3 N 19 24 10 13 997.4 997.3 0.0
03/08:30am 28.1 30.8 22.8 73 3.6 NNE 13 19 7 10 997.6 997.5 0.0
03/08:00am 27.0 30.6 23.0 79 2.7 NNE 9 13 5 7 997.7 997.6 0.0
03/07:30am 26.2 29.6 22.7 81 2.4 NNE 9 13 5 7 997.8 997.7 0.0
03/07:00am 25.2 30.5 23.1 88 1.4 CALM 0 0 0 0 997.6 997.5 0.0
03/06:30am 23.6 27.9 22.6 94 0.7 W 4 6 2 3 997.4 997.3 0.0
03/06:00am 22.9 28.0 22.6 98 0.2 CALM 0 7 0 4 996.9 996.8 0.0
03/05:30am 22.1 25.9 21.6 97 0.3 W 4 7 2 4 996.8 996.7 0.0
03/05:00am 22.2 25.6 21.7 97 0.3 W 6 7 3 4 996.3 996.2 0.0
03/04:30am 22.6 27.0 22.1 97 0.3 W 2 7 1 4 996.0 995.9 0.0
03/04:00am 22.7 26.2 21.9 95 0.5 W 6 7 3 4 995.9 995.8 0.0
03/03:30am 22.9 26.4 22.1 95 0.5 WNW 7 9 4 5 995.6 995.5 0.0
03/03:00am 23.2 27.3 22.2 94 0.7 NW 4 9 2 5 995.8 995.7 0.0
03/02:30am 24.1 27.5 22.7 92 0.9 NNW 9 11 5 6 996.1 996.0 0.0
03/02:00am 23.3 26.4 22.1 93 0.8 NNW 9 11 5 6 996.4 996.3 0.0
03/01:30am 23.1 26.6 22.1 94 0.7 NW 7 9 4 5 996.8 996.7 0.0
03/01:00am 23.4 27.0 22.4 94 0.7 NW 7 11 4 6 997.1 997.0 0.0
03/12:30am 23.4 27.0 22.4 94 0.7 NW 7 9 4 5 997.6 997.5 0.0
03/12:00am 23.7 27.5 22.7 94 0.7 NNW 7 7 4 4 997.9 997.8 0.0
 
Date/Time
EST
Temp
°C
App
Temp
°C
Dew
Point
°C
Rel
Hum
%
Delta-T
°C
Wind Press
QNH
hPa
Press
MSL
hPa
Rain since
9am
mm
Dir  Spd
km/h
Gust
km/h
Spd
kts
Gust
kts
02/11:30pm 24.2 27.9 22.6 91 1.1 NNW 7 9 4 5 998.4 998.3 0.0
02/11:00pm 24.2 27.9 22.6 91 1.1 NNW 7 9 4 5 998.8 998.7 0.0
02/10:30pm 24.7 28.5 22.8 89 1.3 N 7 9 4 5 998.8 998.7 0.0
02/10:00pm 25.6 29.0 23.3 87 1.6 N 11 13 6 7 999.2 999.1 0.0
02/09:30pm 25.8 28.7 23.1 85 1.8 N 13 15 7 8 999.6 999.5 0.0
02/09:00pm 26.1 28.9 23.0 83 2.1 N 13 17 7 9 999.6 999.5 0.0
02/08:30pm 26.2 28.5 22.7 81 2.4 NNE 15 20 8 11 999.7 999.6 0.0
02/08:00pm 26.4 29.3 23.1 82 2.3 NNE 13 17 7 9 999.4 999.3 0.0
02/07:30pm 26.4 29.1 22.9 81 2.4 NNE 13 17 7 9 999.0 998.9 0.0
02/07:03pm 26.4 29.1 23.5 84 2.0 NE 15 19 8 10 998.8 998.7 0.0
02/07:00pm 26.5 29.3 23.6 84 2.0 NE 15 19 8 10 998.7 998.6 0.0
02/06:51pm 26.4 29.8 23.3 83 2.1 NNE 11 17 6 9 998.9 998.8 0.0
02/06:30pm 26.6 29.3 23.5 83 2.1 NE 15 19 8 10 998.6 998.5 0.0
02/06:00pm 26.7 29.1 23.0 80 2.5 NE 15 20 8 11 998.6 998.5 0.0
02/05:30pm 26.7 29.2 23.2 81 2.4 ENE 15 20 8 11 998.1 998.0 0.0
02/05:00pm 26.5 29.3 23.0 81 2.4 NE 13 17 7 9 998.2 998.1 0.0
02/04:30pm 26.7 29.4 22.8 79 2.6 ENE 13 17 7 9 998.2 998.1 0.0
02/04:00pm 26.6 29.0 22.2 77 3.0 ENE 13 20 7 11 998.5 998.4 0.0
02/03:30pm 27.2 28.9 22.4 75 3.2 ENE 17 24 9 13 998.2 998.1 0.0
02/03:00pm 27.7 28.9 22.2 72 3.7 ENE 19 22 10 12 998.4 998.3 0.0
02/02:30pm 27.7 29.3 22.2 72 3.7 ENE 17 22 9 12 998.7 998.6 0.0
02/02:00pm 27.7 28.8 22.0 71 3.8 ENE 19 24 10 13 999.3 999.2 0.0
02/01:30pm 28.3 29.9 22.1 69 4.2 ENE 17 24 9 13 999.6 999.5 0.0
02/01:00pm 27.6 28.3 21.6 70 4.0 NE 20 24 11 13 1000.0 999.9 0.0
02/12:30pm 28.3 29.9 22.1 69 4.2 ENE 17 22 9 12 1000.6 1000.5 0.0
02/12:00pm 27.7 29.0 21.7 70 4.0 ENE 17 20 9 11 1001.0 1000.9 0.0
02/11:30am 27.6 28.8 21.4 69 4.1 NE 17 20 9 11 1001.2 1001.1 0.0
02/11:00am 28.2 29.5 21.7 68 4.4 NE 17 22 9 12 1001.2 1001.1 0.0
02/10:30am 28.3 29.3 21.8 68 4.4 NE 19 24 10 13 1001.6 1001.5 0.0
02/10:00am 28.2 29.4 21.5 67 4.5 NE 17 26 9 14 1001.8 1001.7 0.0
02/09:30am 28.2 30.1 22.0 69 4.2 NE 15 22 8 12 1001.9 1001.8 0.0
02/09:00am 28.7 31.6 21.7 66 4.7 E 9 20 5 11 1002.0 1001.9 0.0
02/08:30am 26.9 30.3 21.6 72 3.5 SSE 6 11 3 6 1002.2 1002.1 0.0

Other formats

Comma delimited format used in spreadsheet applications
http://www.bom.gov.au/fwo/IDQ60801/IDQ60801.94592.axf

JavaScript Object Notation format (JSON) in row-major order
http://www.bom.gov.au/fwo/IDQ60801/IDQ60801.94592.json

Data quality

Most of these data are generated automatically and are frequently updated. Quality checks on data are not normally performed. It is possible for incorrect values to appear. Refer to information at About Latest Weather Observations and please check the disclaimer before using these data.